createdAt,value
2019-06-27T00:01:24.309Z,100871.70
2019-06-27T00:03:52.750Z,100872.45
2019-06-27T00:06:21.268Z,100873.45
2019-06-27T00:08:49.777Z,100871.71
2019-06-27T00:11:18.315Z,100868.99
2019-06-27T00:13:46.957Z,100878.14
2019-06-27T00:16:15.381Z,100882.73
2019-06-27T00:18:43.819Z,100885.70
2019-06-27T00:21:12.284Z,100886.92
2019-06-27T00:23:40.738Z,100885.67
2019-06-27T00:26:09.171Z,100886.86
2019-06-27T00:28:37.637Z,100891.25
2019-06-27T00:31:06.068Z,100895.23
2019-06-27T00:33:34.567Z,100895.52
2019-06-27T00:36:03.180Z,100894.19
2019-06-27T00:38:31.644Z,100895.05
2019-06-27T00:41:00.160Z,100900.30
2019-06-27T00:43:28.613Z,100911.32
2019-06-27T00:45:57.217Z,100911.17
2019-06-27T00:48:25.716Z,100907.33
2019-06-27T00:50:54.251Z,100909.58
2019-06-27T00:53:22.683Z,100907.84
2019-06-27T00:55:51.112Z,100909.83
2019-06-27T00:58:19.569Z,100908.59
2019-06-27T01:00:48.075Z,100906.03
2019-06-27T01:03:16.790Z,100908.96
2019-06-27T01:05:45.367Z,100911.31
2019-06-27T01:08:13.797Z,100917.08
2019-06-27T01:10:42.300Z,100914.89
2019-06-27T01:13:10.841Z,100918.72
2019-06-27T01:15:39.342Z,100915.76
2019-06-27T01:18:07.914Z,100917.33
2019-06-27T01:20:36.379Z,100913.32
2019-06-27T01:23:04.949Z,100923.62
2019-06-27T01:25:33.378Z,100925.05
2019-06-27T01:28:01.836Z,100920.22
2019-06-27T01:30:30.351Z,100914.80
2019-06-27T01:32:58.848Z,100908.84
2019-06-27T01:35:27.303Z,100910.07
2019-06-27T01:37:55.730Z,100912.91
2019-06-27T01:40:24.305Z,100918.45
2019-06-27T01:42:52.940Z,100920.95
2019-06-27T01:45:26.071Z,100920.77
2019-06-27T01:47:54.521Z,100921.80
2019-06-27T01:50:22.997Z,100925.67
2019-06-27T01:52:51.529Z,100923.17
2019-06-27T01:55:20.109Z,100926.66
2019-06-27T01:57:48.710Z,100926.91
2019-06-27T02:00:17.920Z,100932.06
2019-06-27T02:02:46.358Z,100928.00
2019-06-27T02:05:15.599Z,100929.62
2019-06-27T02:07:44.350Z,100935.61
2019-06-27T02:10:13.118Z,100929.30
2019-06-27T02:12:41.731Z,100932.52
2019-06-27T02:15:10.802Z,100932.02
2019-06-27T02:17:39.302Z,100932.71
2019-06-27T02:20:09.203Z,100921.66
2019-06-27T02:22:37.768Z,100932.44
2019-06-27T02:25:07.142Z,100936.29
2019-06-27T02:27:35.700Z,100929.84
2019-06-27T02:30:07.768Z,100937.59
2019-06-27T02:32:36.365Z,100936.55
2019-06-27T02:35:06.828Z,100930.59
2019-06-27T02:37:35.323Z,100932.71
2019-06-27T02:40:05.500Z,100936.02
2019-06-27T02:42:33.951Z,100942.61
2019-06-27T02:45:02.408Z,100945.06
2019-06-27T02:47:30.814Z,100936.66
2019-06-27T02:49:59.271Z,100932.83
2019-06-27T02:52:27.710Z,100939.07
2019-06-27T02:54:56.166Z,100941.25
2019-06-27T02:57:24.876Z,100937.85
2019-06-27T02:59:54.137Z,100936.55
2019-06-27T03:02:22.555Z,100940.86
2019-06-27T03:04:51.025Z,100935.61
2019-06-27T03:07:19.527Z,100935.81
2019-06-27T03:09:48.026Z,100933.24
2019-06-27T03:12:16.483Z,100938.94
2019-06-27T03:14:44.989Z,100937.23
2019-06-27T03:17:13.487Z,100937.37
2019-06-27T03:19:42.101Z,100941.20
2019-06-27T03:22:10.629Z,100946.63
2019-06-27T03:24:39.037Z,100948.80
2019-06-27T03:27:10.532Z,100952.71
2019-06-27T03:29:38.965Z,100945.97
2019-06-27T03:32:07.397Z,100946.30
2019-06-27T03:34:35.923Z,100951.85
2019-06-27T03:37:04.421Z,100953.40
2019-06-27T03:39:33.083Z,100958.77
2019-06-27T03:42:01.850Z,100949.94
2019-06-27T03:44:30.253Z,100954.86
2019-06-27T03:46:58.678Z,100954.02
2019-06-27T03:49:27.218Z,100955.58
2019-06-27T03:51:55.651Z,100957.66
2019-06-27T03:54:24.127Z,100953.84
2019-06-27T03:56:52.654Z,100963.49
2019-06-27T03:59:21.165Z,100965.03
2019-06-27T04:01:49.672Z,100957.06
2019-06-27T04:04:18.118Z,100964.16
2019-06-27T04:06:46.550Z,100960.95
2019-06-27T04:09:14.983Z,100965.52
2019-06-27T04:11:43.881Z,100974.92
2019-06-27T04:14:12.319Z,100967.68
2019-06-27T04:16:40.747Z,100977.27
2019-06-27T04:19:09.342Z,100973.11
2019-06-27T04:21:37.842Z,100974.55
2019-06-27T04:24:06.423Z,100974.28
2019-06-27T04:26:34.881Z,100977.63
2019-06-27T04:29:03.319Z,100981.31
2019-06-27T04:31:31.807Z,100983.58
2019-06-27T04:34:00.336Z,100992.21
2019-06-27T04:36:28.789Z,100996.36
2019-06-27T04:38:57.219Z,100996.20
2019-06-27T04:41:25.683Z,101006.08
2019-06-27T04:43:54.113Z,101008.88
2019-06-27T04:46:22.603Z,101018.64
2019-06-27T04:48:51.223Z,101017.79
2019-06-27T04:51:19.658Z,101024.56
2019-06-27T04:53:48.086Z,101020.85
2019-06-27T04:56:16.554Z,101018.29
2019-06-27T04:58:44.983Z,101029.61
2019-06-27T05:01:13.415Z,101031.20
2019-06-27T05:03:41.938Z,101024.70
2019-06-27T05:06:10.513Z,101025.59
2019-06-27T05:08:38.957Z,101029.98
2019-06-27T05:11:07.416Z,101024.80
2019-06-27T05:13:35.914Z,101030.55
2019-06-27T05:16:04.425Z,101039.31
2019-06-27T05:18:32.889Z,101032.02
2019-06-27T05:21:01.320Z,101035.05
2019-06-27T05:23:29.755Z,101036.17
2019-06-27T05:25:58.208Z,101033.96
2019-06-27T05:28:26.667Z,101037.47
2019-06-27T05:30:55.344Z,101034.38
2019-06-27T05:33:23.868Z,101041.79
2019-06-27T05:35:52.851Z,101036.34
2019-06-27T05:38:21.267Z,101033.20
2019-06-27T05:40:49.780Z,101039.72
2019-06-27T05:43:18.247Z,101035.44
2019-06-27T05:45:46.694Z,101037.51
2019-06-27T05:48:15.227Z,101041.77
2019-06-27T05:50:43.655Z,101035.41
2019-06-27T05:53:12.553Z,101046.59
2019-06-27T05:55:41.026Z,101042.30
2019-06-27T05:58:09.483Z,101038.02
2019-06-27T06:00:38.058Z,101042.78
2019-06-27T06:03:06.620Z,101043.23
2019-06-27T06:05:35.068Z,101043.11
2019-06-27T06:08:03.635Z,101043.50
2019-06-27T06:10:32.161Z,101047.52
2019-06-27T06:13:00.599Z,101046.04
2019-06-27T06:15:29.175Z,101051.46
2019-06-27T06:17:57.789Z,101051.81
2019-06-27T06:20:26.780Z,101053.41
2019-06-27T06:22:55.201Z,101053.16
2019-06-27T06:25:23.742Z,101061.02
2019-06-27T06:27:52.175Z,101057.59
2019-06-27T06:30:21.348Z,101060.22
2019-06-27T06:32:49.819Z,101057.27
2019-06-27T06:35:18.255Z,101061.19
2019-06-27T06:37:46.753Z,101064.77
2019-06-27T06:40:15.354Z,101063.97
2019-06-27T06:42:43.786Z,101071.16
2019-06-27T06:45:12.568Z,101075.14
2019-06-27T06:47:41.061Z,101069.89
2019-06-27T06:50:09.829Z,101073.34
2019-06-27T06:52:38.270Z,101075.73
2019-06-27T06:55:07.374Z,101078.80
2019-06-27T06:57:35.873Z,101077.57
2019-06-27T07:00:06.688Z,101083.61
2019-06-27T07:02:35.166Z,101074.77
2019-06-27T07:05:04.035Z,101074.48
2019-06-27T07:07:32.446Z,101076.26
2019-06-27T07:10:00.912Z,101075.84
2019-06-27T07:12:29.417Z,101076.91
2019-06-27T07:14:57.900Z,101083.69
2019-06-27T07:17:26.354Z,101086.28
2019-06-27T07:19:57.507Z,101084.55
2019-06-27T07:22:24.933Z,101078.83
2019-06-27T07:24:53.393Z,101080.87
2019-06-27T07:27:21.833Z,101088.46
2019-06-27T07:29:50.474Z,101078.22
2019-06-27T07:32:18.961Z,101083.58
2019-06-27T07:34:47.416Z,101087.14
2019-06-27T07:37:15.849Z,101081.00
2019-06-27T07:39:44.297Z,101081.17
2019-06-27T07:42:12.810Z,101089.71
2019-06-27T07:44:41.237Z,101087.57
2019-06-27T07:47:09.694Z,101089.60
2019-06-27T07:49:38.121Z,101088.30
2019-06-27T07:52:06.703Z,101090.02
2019-06-27T07:54:35.170Z,101083.11
2019-06-27T07:57:03.612Z,101084.52
2019-06-27T07:59:32.101Z,101087.65
2019-06-27T08:02:00.625Z,101092.36
2019-06-27T08:04:29.062Z,101083.77
2019-06-27T08:06:57.503Z,101083.30
2019-06-27T08:09:25.954Z,101088.23
2019-06-27T08:11:54.391Z,101081.27
2019-06-27T08:14:22.821Z,101080.16
2019-06-27T08:16:51.359Z,101092.53
2019-06-27T08:19:19.785Z,101089.89
2019-06-27T08:21:48.244Z,101086.23
2019-06-27T08:24:16.685Z,101089.93
2019-06-27T08:26:45.119Z,101088.94
2019-06-27T08:29:13.658Z,101083.02
2019-06-27T08:31:51.493Z,101082.55
2019-06-27T08:34:12.362Z,101078.64
2019-06-27T08:36:40.867Z,101082.62
2019-06-27T08:39:09.410Z,101080.56
2019-06-27T08:41:37.984Z,101082.55
2019-06-27T08:44:06.411Z,101075.98
2019-06-27T08:46:34.944Z,101075.84
2019-06-27T08:49:03.384Z,101079.97
2019-06-27T08:51:31.806Z,101081.02
2019-06-27T08:54:00.337Z,101081.60
2019-06-27T08:56:28.765Z,101080.05
2019-06-27T08:58:57.205Z,101080.30
2019-06-27T09:01:25.736Z,101078.45
2019-06-27T09:03:54.171Z,101068.95
2019-06-27T09:06:22.653Z,101070.51
2019-06-27T09:08:51.125Z,101070.87
2019-06-27T09:11:19.552Z,101071.95
2019-06-27T09:13:47.977Z,101074.84
2019-06-27T09:16:16.433Z,101075.71
2019-06-27T09:18:44.867Z,101076.16
2019-06-27T09:21:13.369Z,101075.43
2019-06-27T09:23:41.911Z,101076.50
2019-06-27T09:26:10.396Z,101078.57
2019-06-27T09:28:38.830Z,101078.73
2019-06-27T09:31:07.372Z,101075.20
2019-06-27T09:33:35.796Z,101073.41
2019-06-27T09:36:04.869Z,101072.66
2019-06-27T09:38:33.326Z,101075.12
2019-06-27T09:41:01.815Z,101073.70
2019-06-27T09:43:30.229Z,101074.97
2019-06-27T09:45:58.706Z,101074.03
2019-06-27T09:48:27.154Z,101069.03
2019-06-27T09:50:55.583Z,101069.39
2019-06-27T09:53:24.047Z,101082.53
2019-06-27T09:55:52.615Z,101072.52
2019-06-27T09:58:21.047Z,101075.76
2019-06-27T10:00:49.855Z,101077.69
2019-06-27T10:03:18.294Z,101069.28
2019-06-27T10:05:46.858Z,101065.53
2019-06-27T10:08:15.324Z,101062.23
2019-06-27T10:10:43.947Z,101070.70
2019-06-27T10:13:12.504Z,101072.03
2019-06-27T10:15:40.955Z,101069.99
2019-06-27T10:18:09.457Z,101068.73
2019-06-27T10:20:37.862Z,101080.16
2019-06-27T10:23:06.381Z,101060.30
2019-06-27T10:25:38.089Z,101058.23
2019-06-27T10:28:05.130Z,101050.70
2019-06-27T10:30:33.608Z,101064.31
2019-06-27T10:33:02.049Z,101063.09
2019-06-27T10:35:30.477Z,101058.25
2019-06-27T10:37:58.945Z,101047.31
2019-06-27T10:40:29.011Z,101039.59
2019-06-27T10:42:57.448Z,101050.05
2019-06-27T10:45:26.061Z,101061.38
2019-06-27T10:47:54.562Z,101049.11
2019-06-27T10:50:23.135Z,101042.45
2019-06-27T10:52:51.738Z,101039.16
2019-06-27T10:55:20.453Z,101052.44
2019-06-27T10:57:48.930Z,101044.76
2019-06-27T11:00:19.099Z,101039.66
2019-06-27T11:02:47.603Z,101043.90
2019-06-27T11:05:16.279Z,101047.30
2019-06-27T11:07:44.833Z,101038.92
2019-06-27T11:10:14.021Z,101057.47
2019-06-27T11:12:45.004Z,101038.19
2019-06-27T11:15:14.568Z,101027.63
2019-06-27T11:17:43.000Z,101033.58
2019-06-27T11:20:15.157Z,101024.88
2019-06-27T11:22:42.245Z,101022.20
2019-06-27T11:25:11.210Z,101031.11
2019-06-27T11:27:39.726Z,101021.33
2019-06-27T11:30:09.389Z,101018.53
2019-06-27T11:32:38.065Z,101021.88
2019-06-27T11:35:07.724Z,101004.50
2019-06-27T11:37:36.192Z,101001.49
2019-06-27T11:40:06.584Z,101007.75
2019-06-27T11:42:35.076Z,101006.46
2019-06-27T11:45:05.718Z,100998.14
2019-06-27T11:47:34.660Z,100995.72
2019-06-27T11:50:03.796Z,100990.33
2019-06-27T11:52:32.517Z,101001.59
2019-06-27T11:55:00.950Z,100992.63
2019-06-27T11:57:29.394Z,100988.01
2019-06-27T11:59:57.840Z,100989.17
2019-06-27T12:02:26.271Z,100984.45
2019-06-27T12:04:54.796Z,100983.86
2019-06-27T12:07:23.486Z,100974.17
2019-06-27T12:09:51.922Z,100976.55
2019-06-27T12:12:20.468Z,100975.34
2019-06-27T12:14:49.004Z,100968.82
2019-06-27T12:17:17.417Z,100968.78
2019-06-27T12:19:45.847Z,100968.00
2019-06-27T12:22:14.390Z,100972.63
2019-06-27T12:24:42.839Z,100963.25
2019-06-27T12:27:11.281Z,100962.31
2019-06-27T12:29:39.902Z,100953.47
2019-06-27T12:32:08.336Z,100956.45
2019-06-27T12:34:36.827Z,100962.14
2019-06-27T12:37:05.306Z,100954.22
2019-06-27T12:39:33.759Z,100946.84
2019-06-27T12:42:02.191Z,100945.37
2019-06-27T12:44:30.718Z,100943.05
2019-06-27T12:46:59.159Z,100938.53
2019-06-27T12:49:44.807Z,100933.52
2019-06-27T12:51:57.802Z,100937.88
2019-06-27T12:54:26.212Z,100929.63
2019-06-27T12:56:54.645Z,100933.60
2019-06-27T12:59:23.316Z,100927.45
2019-06-27T13:01:51.760Z,100930.45
2019-06-27T13:04:23.915Z,100926.49
2019-06-27T13:06:50.395Z,100927.14
2019-06-27T13:09:18.835Z,100915.56
2019-06-27T13:11:47.367Z,100910.38
2019-06-27T13:14:15.885Z,100915.21
2019-06-27T13:16:44.356Z,100916.44
2019-06-27T13:19:12.810Z,100912.98
2019-06-27T13:21:41.382Z,100917.11
2019-06-27T13:24:09.823Z,100912.63
2019-06-27T13:26:38.398Z,100909.86
2019-06-27T13:29:06.909Z,100913.73
2019-06-27T13:31:35.450Z,100904.71
2019-06-27T13:34:03.888Z,100904.02
2019-06-27T13:36:33.496Z,100904.03
2019-06-27T13:39:06.020Z,100906.11
2019-06-27T13:41:32.293Z,100899.38
2019-06-27T13:44:00.755Z,100899.18
2019-06-27T13:46:29.210Z,100891.37
2019-06-27T13:48:57.655Z,100893.67
2019-06-27T13:51:26.158Z,100878.72
2019-06-27T13:53:54.677Z,100875.09
2019-06-27T13:56:23.153Z,100874.58
2019-06-27T13:58:51.605Z,100871.66
2019-06-27T14:01:20.169Z,100877.34
2019-06-27T14:03:50.016Z,100870.98
2019-06-27T14:06:18.636Z,100875.97
2019-06-27T14:08:47.164Z,100880.11
2019-06-27T14:11:15.620Z,100869.59
2019-06-27T14:13:44.392Z,100862.14
2019-06-27T14:16:13.022Z,100864.97
2019-06-27T14:18:41.547Z,100857.89
2019-06-27T14:21:10.158Z,100862.72
2019-06-27T14:23:38.601Z,100862.00
2019-06-27T14:26:07.036Z,100853.94
2019-06-27T14:28:35.608Z,100856.70
2019-06-27T14:31:04.033Z,100854.27
2019-06-27T14:33:32.549Z,100846.70
2019-06-27T14:36:01.168Z,100850.58
2019-06-27T14:38:29.705Z,100849.70
2019-06-27T14:40:58.129Z,100845.82
2019-06-27T14:43:26.678Z,100847.44
2019-06-27T14:45:55.189Z,100845.71
2019-06-27T14:48:23.624Z,100840.94
2019-06-27T14:50:52.170Z,100838.92
2019-06-27T14:53:20.577Z,100834.05
2019-06-27T14:55:49.091Z,100835.52
2019-06-27T14:58:17.582Z,100834.70
2019-06-27T15:00:46.285Z,100837.82
2019-06-27T15:03:14.804Z,100837.52
2019-06-27T15:05:43.446Z,100836.52
2019-06-27T15:08:11.875Z,100832.64
2019-06-27T15:10:40.388Z,100829.62
2019-06-27T15:13:08.871Z,100834.92
2019-06-27T15:15:37.279Z,100832.51
2019-06-27T15:18:05.782Z,100838.84
2019-06-27T15:20:34.234Z,100826.88
2019-06-27T15:23:02.745Z,100836.53
2019-06-27T15:25:31.321Z,100832.34
2019-06-27T15:27:59.770Z,100834.50
2019-06-27T15:30:28.231Z,100832.24
2019-06-27T15:32:56.801Z,100830.89
2019-06-27T15:35:25.302Z,100831.13
2019-06-27T15:37:53.761Z,100833.31
2019-06-27T15:40:22.432Z,100830.06
2019-06-27T15:42:50.895Z,100822.54
2019-06-27T15:45:19.470Z,100827.20
2019-06-27T15:47:48.114Z,100832.33
2019-06-27T15:50:16.622Z,100832.34
2019-06-27T15:52:45.130Z,100829.14
2019-06-27T15:55:13.994Z,100834.14
2019-06-27T15:57:42.676Z,100826.91
2019-06-27T16:00:11.819Z,100823.43
2019-06-27T16:02:40.433Z,100828.58
2019-06-27T16:05:09.315Z,100823.81
2019-06-27T16:07:37.756Z,100821.76
2019-06-27T16:10:07.337Z,100827.96
2019-06-27T16:12:35.796Z,100823.47
2019-06-27T16:15:06.815Z,100826.58
2019-06-27T16:17:35.283Z,100819.36
2019-06-27T16:20:06.693Z,100811.09
2019-06-27T16:22:35.190Z,100817.13
2019-06-27T16:25:04.058Z,100820.19
2019-06-27T16:27:32.750Z,100820.36
2019-06-27T16:30:01.182Z,100823.28
2019-06-27T16:32:29.997Z,100810.75
2019-06-27T16:34:58.712Z,100823.16
2019-06-27T16:37:27.145Z,100816.59
2019-06-27T16:39:55.588Z,100818.97
2019-06-27T16:42:24.041Z,100815.50
2019-06-27T16:44:52.495Z,100821.38
2019-06-27T16:47:21.095Z,100821.89
2019-06-27T16:49:49.724Z,100816.38
2019-06-27T16:52:18.193Z,100810.53
2019-06-27T16:54:46.615Z,100813.14
2019-06-27T16:57:15.132Z,100813.98
2019-06-27T16:59:43.638Z,100825.47
2019-06-27T17:02:12.145Z,100821.89
2019-06-27T17:04:40.655Z,100820.59
2019-06-27T17:07:09.101Z,100817.73
2019-06-27T17:09:37.527Z,100820.31
2019-06-27T17:12:06.054Z,100813.61
2019-06-27T17:14:34.492Z,100818.59
2019-06-27T17:17:02.933Z,100820.80
2019-06-27T17:19:31.386Z,100817.16
2019-06-27T17:21:59.813Z,100823.41
2019-06-27T17:24:28.249Z,100822.38
2019-06-27T17:26:56.853Z,100821.80
2019-06-27T17:29:25.591Z,100824.58
2019-06-27T17:31:54.046Z,100822.69
2019-06-27T17:34:22.622Z,100815.47
2019-06-27T17:36:57.495Z,100817.84
2019-06-27T17:39:21.217Z,100818.31
2019-06-27T17:41:49.804Z,100816.90
2019-06-27T17:44:19.978Z,100817.19
2019-06-27T17:46:48.595Z,100810.27
2019-06-27T17:49:17.114Z,100816.70
2019-06-27T17:51:45.546Z,100818.55
2019-06-27T17:54:14.042Z,100815.02
2019-06-27T17:56:42.486Z,100814.77
2019-06-27T17:59:10.943Z,100819.75
2019-06-27T18:01:39.372Z,100820.89
2019-06-27T18:04:07.855Z,100818.50
2019-06-27T18:06:36.280Z,100825.27
2019-06-27T18:09:05.141Z,100819.61
2019-06-27T18:11:33.676Z,100820.48
2019-06-27T18:14:02.119Z,100828.21
2019-06-27T18:16:30.546Z,100816.44
2019-06-27T18:19:00.686Z,100825.47
2019-06-27T18:21:29.367Z,100819.87
2019-06-27T18:23:57.891Z,100817.92
2019-06-27T18:26:26.422Z,100820.14
2019-06-27T18:28:54.935Z,100822.33
2019-06-27T18:31:23.453Z,100822.28
2019-06-27T18:33:52.058Z,100823.18
2019-06-27T18:36:20.507Z,100823.05
2019-06-27T18:38:48.937Z,100819.48
2019-06-27T18:41:17.636Z,100822.83
2019-06-27T18:43:46.069Z,100824.73
2019-06-27T18:46:14.504Z,100825.38
2019-06-27T18:48:43.018Z,100819.61
2019-06-27T18:51:11.471Z,100828.85
2019-06-27T18:53:40.105Z,100821.93
2019-06-27T18:56:08.622Z,100824.38
2019-06-27T18:58:37.051Z,100824.48
2019-06-27T19:01:05.493Z,100823.67
2019-06-27T19:03:33.971Z,100827.51
2019-06-27T19:06:02.474Z,100829.65
2019-06-27T19:08:30.984Z,100832.44
2019-06-27T19:10:59.690Z,100833.41
2019-06-27T19:13:28.142Z,100842.69
2019-06-27T19:15:56.548Z,100842.06
2019-06-27T19:18:43.141Z,100842.36
2019-06-27T19:21:29.917Z,100846.48
2019-06-27T19:24:00.101Z,100847.01
2019-06-27T19:26:28.610Z,100854.12
2019-06-27T19:28:57.057Z,100854.16
2019-06-27T19:31:25.688Z,100853.80
2019-06-27T19:33:54.120Z,100850.20
2019-06-27T19:36:22.559Z,100856.23
2019-06-27T19:38:51.081Z,100860.80
2019-06-27T19:41:19.724Z,100858.28
2019-06-27T19:43:48.246Z,100863.59
2019-06-27T19:46:16.900Z,100861.78
2019-06-27T19:48:45.835Z,100872.12
2019-06-27T19:51:14.251Z,100873.98
2019-06-27T19:53:42.874Z,100883.26
2019-06-27T19:56:11.327Z,100883.12
2019-06-27T19:58:39.868Z,100886.21
2019-06-27T20:01:08.400Z,100894.44
2019-06-27T20:03:36.835Z,100891.08
2019-06-27T20:06:05.447Z,100886.62
2019-06-27T20:08:33.991Z,100895.68
2019-06-27T20:11:02.419Z,100899.41
2019-06-27T20:13:30.872Z,100897.36
2019-06-27T20:15:59.544Z,100904.86
2019-06-27T20:18:28.053Z,100905.63
2019-06-27T20:20:56.566Z,100902.85
2019-06-27T20:23:25.317Z,100911.30
2019-06-27T20:25:53.842Z,100914.16
2019-06-27T20:28:22.296Z,100920.05
2019-06-27T20:30:50.884Z,100923.38
2019-06-27T20:33:19.392Z,100930.03
2019-06-27T20:35:47.963Z,100937.92
2019-06-27T20:38:16.418Z,100933.92
2019-06-27T20:40:44.933Z,100947.17
2019-06-27T20:43:13.436Z,100941.98
2019-06-27T20:45:42.008Z,100943.88
2019-06-27T20:48:10.511Z,100944.89
2019-06-27T20:50:38.949Z,100950.34
2019-06-27T20:53:07.471Z,100949.22
2019-06-27T20:55:36.026Z,100949.05
2019-06-27T20:58:04.596Z,100944.03
2019-06-27T21:00:33.222Z,100949.66
2019-06-27T21:03:01.923Z,100953.39
2019-06-27T21:05:30.475Z,100956.25
2019-06-27T21:07:58.950Z,100953.55
2019-06-27T21:10:27.445Z,100957.34
2019-06-27T21:12:55.939Z,100964.64
2019-06-27T21:15:24.721Z,100956.84
2019-06-27T21:17:53.306Z,100958.75
2019-06-27T21:20:21.961Z,100959.39
2019-06-27T21:22:50.493Z,100953.19
2019-06-27T21:25:19.592Z,100960.94
2019-06-27T21:27:48.093Z,100957.66
2019-06-27T21:30:16.904Z,100960.31
2019-06-27T21:32:48.352Z,100963.52
2019-06-27T21:35:15.626Z,100965.02
2019-06-27T21:37:44.165Z,100968.20
2019-06-27T21:40:13.720Z,100967.97
2019-06-27T21:42:42.150Z,100968.36
2019-06-27T21:45:11.255Z,100971.11
2019-06-27T21:47:39.755Z,100969.33
2019-06-27T21:50:08.821Z,100973.44
2019-06-27T21:52:37.296Z,100972.97
2019-06-27T21:55:06.996Z,100974.09
2019-06-27T21:57:35.481Z,100971.13
2019-06-27T22:00:08.986Z,100975.84
2019-06-27T22:02:37.530Z,100971.19
2019-06-27T22:05:07.207Z,100972.71
2019-06-27T22:07:35.738Z,100973.84
2019-06-27T22:10:06.011Z,100968.83
2019-06-27T22:12:34.623Z,100966.96
2019-06-27T22:15:04.790Z,100972.23
2019-06-27T22:17:33.277Z,100971.71
2019-06-27T22:20:14.450Z,100977.98
2019-06-27T22:22:31.907Z,100971.62
2019-06-27T22:25:00.406Z,100967.30
2019-06-27T22:27:28.903Z,100970.68
2019-06-27T22:29:57.426Z,100969.37
2019-06-27T22:32:25.882Z,100973.01
2019-06-27T22:34:54.326Z,100968.09
2019-06-27T22:37:24.457Z,100970.88
2019-06-27T22:40:12.367Z,100964.61
2019-06-27T22:43:04.072Z,100973.77
2019-06-27T22:45:48.375Z,100967.60
2019-06-27T22:48:16.415Z,100966.05
2019-06-27T22:50:51.214Z,100969.73
2019-06-27T22:53:34.736Z,100972.72
2019-06-27T22:56:03.556Z,100971.88
2019-06-27T22:58:32.053Z,100972.16
2019-06-27T23:01:00.685Z,100967.95
2019-06-27T23:03:29.136Z,100968.86
2019-06-27T23:05:57.547Z,100972.04
2019-06-27T23:08:26.069Z,100970.59
2019-06-27T23:10:54.497Z,100972.55
2019-06-27T23:13:22.931Z,100971.21
2019-06-27T23:15:51.395Z,100967.23
2019-06-27T23:18:19.944Z,100970.75
2019-06-27T23:20:48.474Z,100967.58
2019-06-27T23:23:17.062Z,100967.75
2019-06-27T23:25:45.445Z,100962.56
2019-06-27T23:28:13.871Z,100961.69
2019-06-27T23:30:57.224Z,100965.41
2019-06-27T23:33:25.655Z,100967.33
2019-06-27T23:35:54.089Z,100962.80
2019-06-27T23:38:22.620Z,100965.95
2019-06-27T23:40:51.048Z,100963.50
2019-06-27T23:43:19.476Z,100962.56
2019-06-27T23:45:47.935Z,100966.47
2019-06-27T23:48:16.362Z,100965.05
2019-06-27T23:50:44.808Z,100961.63
2019-06-27T23:53:13.440Z,100965.20
2019-06-27T23:55:41.870Z,100957.61
2019-06-27T23:58:10.374Z,100956.41
